createdAt,value
2019-03-12T00:00:29.294Z,999.07
2019-03-12T00:01:29.289Z,999.07
2019-03-12T00:02:29.276Z,999.03
2019-03-12T00:03:29.274Z,999.10
2019-03-12T00:04:29.375Z,999.10
2019-03-12T00:05:29.259Z,999.10
2019-03-12T00:06:29.262Z,999.14
2019-03-12T00:07:29.273Z,999.13
2019-03-12T00:08:29.254Z,999.09
2019-03-12T00:09:29.260Z,999.15
2019-03-12T00:10:29.250Z,999.16
2019-03-12T00:11:29.279Z,999.18
2019-03-12T00:12:29.262Z,999.15
2019-03-12T00:13:29.253Z,999.16
2019-03-12T00:14:29.263Z,999.18
2019-03-12T00:15:29.239Z,999.25
2019-03-12T00:16:29.236Z,999.21
2019-03-12T00:17:29.228Z,999.24
2019-03-12T00:18:29.214Z,999.22
2019-03-12T00:19:29.225Z,999.23
2019-03-12T00:20:29.207Z,999.25
2019-03-12T00:21:29.193Z,999.27
2019-03-12T00:22:29.187Z,999.27
2019-03-12T00:23:29.183Z,999.26
2019-03-12T00:24:29.198Z,999.25
2019-03-12T00:25:29.179Z,999.22
2019-03-12T00:26:29.170Z,999.23
2019-03-12T00:27:29.164Z,999.36
2019-03-12T00:28:29.156Z,999.40
2019-03-12T00:29:29.143Z,999.44
2019-03-12T00:30:29.152Z,999.40
2019-03-12T00:31:29.134Z,999.42
2019-03-12T00:32:29.144Z,999.38
2019-03-12T00:33:29.112Z,999.44
2019-03-12T00:34:29.128Z,999.38
2019-03-12T00:35:29.128Z,999.51
2019-03-12T00:36:29.115Z,999.41
2019-03-12T00:37:29.111Z,999.47
2019-03-12T00:38:29.118Z,999.44
2019-03-12T00:39:29.121Z,999.43
2019-03-12T00:40:29.120Z,999.38
2019-03-12T00:41:29.097Z,999.37
2019-03-12T00:42:29.088Z,999.45
2019-03-12T00:43:29.088Z,999.41
2019-03-12T00:44:29.072Z,999.39
2019-03-12T00:45:29.083Z,999.51
2019-03-12T00:46:29.062Z,999.54
2019-03-12T00:47:29.068Z,999.47
2019-03-12T00:48:29.067Z,999.37
2019-03-12T00:49:29.118Z,999.43
2019-03-12T00:50:29.073Z,999.44
2019-03-12T00:51:29.038Z,999.46
2019-03-12T00:52:29.032Z,999.48
2019-03-12T00:53:29.029Z,999.50
2019-03-12T00:54:29.017Z,999.48
2019-03-12T00:55:29.022Z,999.45
2019-03-12T00:56:29.002Z,999.49
2019-03-12T00:57:28.991Z,999.37
2019-03-12T00:58:28.982Z,999.41
2019-03-12T00:59:28.973Z,999.48
2019-03-12T01:00:28.983Z,999.46
2019-03-12T01:01:28.991Z,999.48
2019-03-12T01:02:28.983Z,999.48
2019-03-12T01:03:28.968Z,999.37
2019-03-12T01:04:28.964Z,999.41
2019-03-12T01:05:28.966Z,999.47
2019-03-12T01:06:28.945Z,999.48
2019-03-12T01:07:28.938Z,999.54
2019-03-12T01:08:28.930Z,999.57
2019-03-12T01:09:28.923Z,999.62
2019-03-12T01:10:28.926Z,999.48
2019-03-12T01:11:28.909Z,999.55
2019-03-12T01:12:28.900Z,999.52
2019-03-12T01:13:28.898Z,999.52
2019-03-12T01:14:28.887Z,999.51
2019-03-12T01:15:28.887Z,999.56
2019-03-12T01:16:28.877Z,999.58
2019-03-12T01:17:28.865Z,999.57
2019-03-12T01:18:28.858Z,999.72
2019-03-12T01:19:28.860Z,999.60
2019-03-12T01:20:28.858Z,999.66
2019-03-12T01:21:28.845Z,999.71
2019-03-12T01:22:28.850Z,999.66
2019-03-12T01:23:28.840Z,999.62
2019-03-12T01:24:28.832Z,999.64
2019-03-12T01:25:28.838Z,999.63
2019-03-12T01:26:28.823Z,999.68
2019-03-12T01:27:28.818Z,999.64
2019-03-12T01:28:28.800Z,999.65
2019-03-12T01:29:28.795Z,999.71
2019-03-12T01:30:28.803Z,999.74
2019-03-12T01:31:28.789Z,999.75
2019-03-12T01:32:28.789Z,999.73
2019-03-12T01:33:28.783Z,999.68
2019-03-12T01:34:28.785Z,999.72
2019-03-12T01:35:28.775Z,999.83
2019-03-12T01:36:28.782Z,999.81
2019-03-12T01:37:28.777Z,999.94
2019-03-12T01:38:28.759Z,999.80
2019-03-12T01:39:28.757Z,999.88
2019-03-12T01:40:28.753Z,999.89
2019-03-12T01:41:28.756Z,999.93
2019-03-12T01:42:28.736Z,999.87
2019-03-12T01:43:28.732Z,999.90
2019-03-12T01:44:28.750Z,999.91
2019-03-12T01:45:28.738Z,999.86
2019-03-12T01:46:28.748Z,999.88
2019-03-12T01:47:28.728Z,999.88
2019-03-12T01:48:28.720Z,999.91
2019-03-12T01:49:28.711Z,999.89
2019-03-12T01:50:28.710Z,999.89
2019-03-12T01:51:31.074Z,999.90
2019-03-12T01:52:28.687Z,999.98
2019-03-12T01:53:28.678Z,999.94
2019-03-12T01:54:28.681Z,1000.11
2019-03-12T01:55:28.679Z,1000.02
2019-03-12T01:56:28.666Z,999.99
2019-03-12T01:57:28.650Z,1000.05
2019-03-12T01:58:28.651Z,999.99
2019-03-12T01:59:28.638Z,1000.01
2019-03-12T02:00:28.636Z,999.98
2019-03-12T02:01:28.637Z,999.97
2019-03-12T02:02:28.640Z,1000.03
2019-03-12T02:03:28.628Z,1000.04
2019-03-12T02:04:28.625Z,999.94
2019-03-12T02:05:28.617Z,999.91
2019-03-12T02:06:28.616Z,999.84
2019-03-12T02:07:28.598Z,999.94
2019-03-12T02:08:28.665Z,999.91
2019-03-12T02:09:28.585Z,999.90
2019-03-12T02:10:28.576Z,999.96
2019-03-12T02:11:28.586Z,999.91
2019-03-12T02:12:28.564Z,999.92
2019-03-12T02:13:28.556Z,999.94
2019-03-12T02:14:28.605Z,999.80
2019-03-12T02:15:28.552Z,999.87
2019-03-12T02:16:28.551Z,999.77
2019-03-12T02:17:28.560Z,999.82
2019-03-12T02:18:28.540Z,999.81
2019-03-12T02:19:28.527Z,999.81
2019-03-12T02:20:28.527Z,999.87
2019-03-12T02:21:28.516Z,999.80
2019-03-12T02:22:28.537Z,999.66
2019-03-12T02:23:29.102Z,999.80
2019-03-12T02:24:34.508Z,999.70
2019-03-12T02:25:28.513Z,999.71
2019-03-12T02:26:28.495Z,999.76
2019-03-12T02:27:28.502Z,999.66
2019-03-12T02:28:28.481Z,999.72
2019-03-12T02:29:28.477Z,999.65
2019-03-12T02:30:28.483Z,999.71
2019-03-12T02:31:28.479Z,999.66
2019-03-12T02:32:28.466Z,999.75
2019-03-12T02:33:28.454Z,999.75
2019-03-12T02:34:28.460Z,999.77
2019-03-12T02:35:28.449Z,999.84
2019-03-12T02:36:28.439Z,999.90
2019-03-12T02:37:28.450Z,999.84
2019-03-12T02:38:28.419Z,999.83
2019-03-12T02:39:28.417Z,999.90
2019-03-12T02:40:28.408Z,999.77
2019-03-12T02:41:28.404Z,999.87
2019-03-12T02:42:28.405Z,999.81
2019-03-12T02:43:28.386Z,999.84
2019-03-12T02:44:28.386Z,999.90
2019-03-12T02:45:28.381Z,999.95
2019-03-12T02:46:28.373Z,999.94
2019-03-12T02:47:28.376Z,999.92
2019-03-12T02:48:28.363Z,1000.01
2019-03-12T02:49:28.357Z,999.92
2019-03-12T02:50:28.366Z,999.96
2019-03-12T02:51:28.368Z,999.95
2019-03-12T02:52:28.363Z,999.89
2019-03-12T02:53:28.341Z,999.88
2019-03-12T02:54:28.336Z,999.91
2019-03-12T02:55:28.328Z,999.88
2019-03-12T02:56:28.318Z,999.82
2019-03-12T02:57:28.332Z,999.76
2019-03-12T02:58:28.341Z,999.75
2019-03-12T02:59:28.294Z,999.82
2019-03-12T03:00:28.300Z,999.79
2019-03-12T03:01:28.280Z,999.76
2019-03-12T03:02:28.289Z,999.76
2019-03-12T03:03:28.270Z,999.78
2019-03-12T03:04:28.267Z,999.80
2019-03-12T03:05:28.251Z,999.75
2019-03-12T03:06:28.244Z,999.72
2019-03-12T03:07:28.243Z,999.79
2019-03-12T03:08:28.239Z,999.79
2019-03-12T03:09:28.218Z,999.67
2019-03-12T03:10:28.220Z,999.69
2019-03-12T03:11:28.217Z,999.66
2019-03-12T03:12:28.213Z,999.69
2019-03-12T03:13:28.216Z,999.58
2019-03-12T03:14:28.197Z,999.57
2019-03-12T03:15:28.189Z,999.65
2019-03-12T03:16:28.177Z,999.50
2019-03-12T03:17:28.175Z,999.57
2019-03-12T03:18:28.170Z,999.50
2019-03-12T03:19:28.151Z,999.56
2019-03-12T03:20:28.146Z,999.51
2019-03-12T03:21:28.142Z,999.54
2019-03-12T03:22:28.139Z,999.61
2019-03-12T03:23:28.134Z,999.55
2019-03-12T03:24:28.134Z,999.64
2019-03-12T03:25:28.123Z,999.52
2019-03-12T03:26:28.111Z,999.60
2019-03-12T03:27:29.508Z,999.56
2019-03-12T03:28:29.111Z,999.69
2019-03-12T03:29:28.095Z,999.66
2019-03-12T03:30:28.088Z,999.66
2019-03-12T03:31:29.090Z,999.66
2019-03-12T03:32:29.074Z,999.71
2019-03-12T03:33:28.090Z,999.77
2019-03-12T03:34:28.985Z,999.69
2019-03-12T03:35:29.059Z,999.76
2019-03-12T03:36:28.048Z,999.72
2019-03-12T03:37:28.058Z,999.65
2019-03-12T03:38:28.067Z,999.69
2019-03-12T03:39:28.043Z,999.72
2019-03-12T03:40:28.033Z,999.80
2019-03-12T03:41:28.037Z,999.74
2019-03-12T03:42:28.023Z,999.78
2019-03-12T03:43:28.042Z,999.96
2019-03-12T03:44:28.008Z,999.94
2019-03-12T03:45:28.010Z,999.92
2019-03-12T03:46:27.992Z,999.93
2019-03-12T03:47:28.012Z,999.98
2019-03-12T03:48:27.996Z,1000.06
2019-03-12T03:49:28.035Z,999.92
2019-03-12T03:50:27.964Z,999.95
2019-03-12T03:51:27.966Z,999.99
2019-03-12T03:52:27.954Z,999.95
2019-03-12T03:53:27.964Z,999.91
2019-03-12T03:54:27.928Z,1000.00
2019-03-12T03:55:28.931Z,999.92
2019-03-12T03:56:27.925Z,999.94
2019-03-12T03:57:27.938Z,999.94
2019-03-12T03:58:27.942Z,999.91
2019-03-12T03:59:27.927Z,999.92
2019-03-12T04:00:27.923Z,999.90
2019-03-12T04:01:27.911Z,999.88
2019-03-12T04:02:27.895Z,999.99
2019-03-12T04:03:28.903Z,999.95
2019-03-12T04:04:27.893Z,999.91
2019-03-12T04:05:28.898Z,999.92
2019-03-12T04:06:27.881Z,999.86
2019-03-12T04:07:27.875Z,999.78
2019-03-12T04:08:27.882Z,999.81
2019-03-12T04:09:27.884Z,999.82
2019-03-12T04:10:27.865Z,999.80
2019-03-12T04:11:27.860Z,999.80
2019-03-12T04:12:27.847Z,999.82
2019-03-12T04:13:27.837Z,999.79
2019-03-12T04:14:27.842Z,999.73
2019-03-12T04:15:27.825Z,999.85
2019-03-12T04:16:27.823Z,999.81
2019-03-12T04:17:27.808Z,999.77
2019-03-12T04:18:27.803Z,999.82
2019-03-12T04:19:27.813Z,999.81
2019-03-12T04:20:28.791Z,999.82
2019-03-12T04:21:27.780Z,999.76
2019-03-12T04:22:27.770Z,999.78
2019-03-12T04:23:27.766Z,999.86
2019-03-12T04:24:27.770Z,999.72
2019-03-12T04:25:27.758Z,999.83
2019-03-12T04:26:27.738Z,999.81
2019-03-12T04:27:27.730Z,999.96
2019-03-12T04:28:27.726Z,999.85
2019-03-12T04:29:27.737Z,999.86
2019-03-12T04:30:27.714Z,999.77
2019-03-12T04:31:27.701Z,999.79
2019-03-12T04:32:27.699Z,999.80
2019-03-12T04:33:27.689Z,999.83
2019-03-12T04:34:27.700Z,999.85
2019-03-12T04:35:27.675Z,999.86
2019-03-12T04:36:27.670Z,999.89
2019-03-12T04:37:27.674Z,999.88
2019-03-12T04:38:27.654Z,999.95
2019-03-12T04:39:27.658Z,999.86
2019-03-12T04:40:27.642Z,999.91
2019-03-12T04:41:27.629Z,999.92
2019-03-12T04:42:27.633Z,999.89
2019-03-12T04:43:27.612Z,999.87
2019-03-12T04:44:27.614Z,999.86
2019-03-12T04:45:27.612Z,999.89
2019-03-12T04:46:27.603Z,999.89
2019-03-12T04:47:27.611Z,999.89
2019-03-12T04:48:27.587Z,999.78
2019-03-12T04:49:27.581Z,999.82
2019-03-12T04:50:27.571Z,999.84
2019-03-12T04:51:27.570Z,999.78
2019-03-12T04:52:27.738Z,999.78
2019-03-12T04:53:27.554Z,999.79
2019-03-12T04:54:27.546Z,999.80
2019-03-12T04:55:27.543Z,999.77
2019-03-12T04:56:27.526Z,999.82
2019-03-12T04:57:27.789Z,999.83
2019-03-12T04:58:27.514Z,999.74
2019-03-12T04:59:27.509Z,999.79
2019-03-12T05:00:27.496Z,999.82
2019-03-12T05:01:27.494Z,999.78
2019-03-12T05:02:27.482Z,999.81
2019-03-12T05:03:27.484Z,999.82
2019-03-12T05:04:27.474Z,999.81
2019-03-12T05:05:27.465Z,999.79
2019-03-12T05:06:27.462Z,999.84
2019-03-12T05:07:27.445Z,999.82
2019-03-12T05:08:27.447Z,999.72
2019-03-12T05:09:27.430Z,999.84
2019-03-12T05:10:27.425Z,999.76
2019-03-12T05:11:27.417Z,999.80
2019-03-12T05:12:30.457Z,999.85
2019-03-12T05:13:27.451Z,999.80
2019-03-12T05:14:27.435Z,999.86
2019-03-12T05:15:27.426Z,999.88
2019-03-12T05:16:27.423Z,999.90
2019-03-12T05:17:27.410Z,999.80
2019-03-12T05:18:27.418Z,999.79
2019-03-12T05:19:27.396Z,999.76
2019-03-12T05:20:27.415Z,999.74
2019-03-12T05:21:27.399Z,999.72
2019-03-12T05:22:27.387Z,999.71
2019-03-12T05:23:27.393Z,999.72
2019-03-12T05:24:27.378Z,999.63
2019-03-12T05:25:27.374Z,999.82
2019-03-12T05:26:27.369Z,999.79
2019-03-12T05:27:27.351Z,999.78
2019-03-12T05:28:27.359Z,999.69
2019-03-12T05:29:27.350Z,999.71
2019-03-12T05:30:27.342Z,999.68
2019-03-12T05:31:27.323Z,999.77
2019-03-12T05:32:27.318Z,999.70
2019-03-12T05:33:27.321Z,999.80
2019-03-12T05:34:27.310Z,999.78
2019-03-12T05:35:27.307Z,999.86
2019-03-12T05:36:27.291Z,999.77
2019-03-12T05:37:27.288Z,999.83
2019-03-12T05:38:27.299Z,999.84
2019-03-12T05:39:27.271Z,999.82
2019-03-12T05:40:27.265Z,999.73
2019-03-12T05:41:27.266Z,999.72
2019-03-12T05:42:27.244Z,999.84
2019-03-12T05:43:27.274Z,999.86
2019-03-12T05:44:27.235Z,999.86
2019-03-12T05:45:27.233Z,999.89
2019-03-12T05:46:27.214Z,999.79
2019-03-12T05:47:27.211Z,999.94
2019-03-12T05:48:27.205Z,999.85
2019-03-12T05:49:27.217Z,999.86
2019-03-12T05:50:27.192Z,999.88
2019-03-12T05:51:27.188Z,999.86
2019-03-12T05:52:27.167Z,999.85
2019-03-12T05:53:28.173Z,999.92
2019-03-12T05:54:27.170Z,999.91
2019-03-12T05:55:27.159Z,999.87
2019-03-12T05:56:27.162Z,999.79
2019-03-12T05:57:27.151Z,999.84
2019-03-12T05:58:27.140Z,999.86
2019-03-12T05:59:27.160Z,999.74
2019-03-12T06:00:27.131Z,999.79
2019-03-12T06:01:27.150Z,999.86
2019-03-12T06:02:27.146Z,999.69
2019-03-12T06:03:27.137Z,999.77
2019-03-12T06:04:27.143Z,999.68
2019-03-12T06:05:27.118Z,999.59
2019-03-12T06:06:27.134Z,999.63
2019-03-12T06:07:27.102Z,999.63
2019-03-12T06:08:27.099Z,999.71
2019-03-12T06:09:30.527Z,999.63
2019-03-12T06:10:28.088Z,999.65
2019-03-12T06:11:27.073Z,999.61
2019-03-12T06:12:27.080Z,999.66
2019-03-12T06:13:27.059Z,999.70
2019-03-12T06:14:27.064Z,999.61
2019-03-12T06:15:27.055Z,999.61
2019-03-12T06:16:27.039Z,999.59
2019-03-12T06:17:27.027Z,999.57
2019-03-12T06:18:27.031Z,999.60
2019-03-12T06:19:27.042Z,999.53
2019-03-12T06:20:27.048Z,999.48
2019-03-12T06:21:27.034Z,999.46
2019-03-12T06:22:27.020Z,999.52
2019-03-12T06:23:27.014Z,999.49
2019-03-12T06:24:27.004Z,999.49
2019-03-12T06:25:27.015Z,999.42
2019-03-12T06:26:27.001Z,999.44
2019-03-12T06:27:28.004Z,999.40
2019-03-12T06:28:27.010Z,999.44
2019-03-12T06:29:27.014Z,999.35
2019-03-12T06:30:27.028Z,999.45
2019-03-12T06:31:27.010Z,999.43
2019-03-12T06:32:26.996Z,999.40
2019-03-12T06:33:26.989Z,999.39
2019-03-12T06:34:26.981Z,999.35
2019-03-12T06:35:26.983Z,999.25
2019-03-12T06:36:26.969Z,999.19
2019-03-12T06:37:26.954Z,999.20
2019-03-12T06:38:26.957Z,999.16
2019-03-12T06:39:26.938Z,999.14
2019-03-12T06:40:26.952Z,998.97
2019-03-12T06:41:26.924Z,998.96
2019-03-12T06:42:26.925Z,999.05
2019-03-12T06:43:26.907Z,998.99
2019-03-12T06:44:26.902Z,998.94
2019-03-12T06:45:26.912Z,999.02
2019-03-12T06:46:26.894Z,998.99
2019-03-12T06:47:26.889Z,998.94
2019-03-12T06:48:26.875Z,999.03
2019-03-12T06:49:26.870Z,998.94
2019-03-12T06:50:26.859Z,998.90
2019-03-12T06:51:26.881Z,998.87
2019-03-12T06:52:26.864Z,998.82
2019-03-12T06:53:26.856Z,998.76
2019-03-12T06:54:26.854Z,998.60
2019-03-12T06:55:26.845Z,998.50
2019-03-12T06:56:26.843Z,998.36
2019-03-12T06:57:26.833Z,998.33
2019-03-12T06:58:26.822Z,998.33
2019-03-12T06:59:26.818Z,998.26
2019-03-12T07:00:26.805Z,998.17
2019-03-12T07:01:26.811Z,998.06
2019-03-12T07:02:26.792Z,998.14
2019-03-12T07:03:26.795Z,998.05
2019-03-12T07:04:26.770Z,998.07
2019-03-12T07:05:26.768Z,997.88
2019-03-12T07:06:26.777Z,997.85
2019-03-12T07:07:26.757Z,997.83
2019-03-12T07:08:26.753Z,997.85
2019-03-12T07:09:26.767Z,997.85
2019-03-12T07:10:26.733Z,997.76
2019-03-12T07:11:26.727Z,997.86
2019-03-12T07:12:26.747Z,997.75
2019-03-12T07:13:26.737Z,997.71
2019-03-12T07:14:26.726Z,997.64
2019-03-12T07:15:26.713Z,997.67
2019-03-12T07:16:27.713Z,997.61
2019-03-12T07:17:26.717Z,997.56
2019-03-12T07:18:26.694Z,997.57
2019-03-12T07:19:26.692Z,997.53
2019-03-12T07:20:26.677Z,997.50
2019-03-12T07:21:27.676Z,997.51
2019-03-12T07:22:26.680Z,997.48
2019-03-12T07:23:26.659Z,997.44
2019-03-12T07:24:26.648Z,997.51
2019-03-12T07:25:26.654Z,997.54
2019-03-12T07:26:26.644Z,997.59
2019-03-12T07:27:26.669Z,997.67
2019-03-12T07:28:26.634Z,997.54
2019-03-12T07:29:26.646Z,997.62
2019-03-12T07:30:26.623Z,997.62
2019-03-12T07:31:26.755Z,997.70
2019-03-12T07:32:26.623Z,997.71
2019-03-12T07:33:26.637Z,997.63
2019-03-12T07:34:36.204Z,997.64
2019-03-12T07:35:28.609Z,997.64
2019-03-12T07:36:27.606Z,997.71
2019-03-12T07:37:26.593Z,997.62
2019-03-12T07:38:26.598Z,997.73
2019-03-12T07:39:26.574Z,997.75
2019-03-12T07:40:26.575Z,997.74
2019-03-12T07:41:32.427Z,997.81
2019-03-12T07:42:28.555Z,997.72
2019-03-12T07:43:26.567Z,997.73
2019-03-12T07:44:26.540Z,997.75
2019-03-12T07:45:26.531Z,997.73
2019-03-12T07:46:26.551Z,997.74
2019-03-12T07:47:35.666Z,997.74
2019-03-12T07:48:28.546Z,997.79
2019-03-12T07:49:26.527Z,997.83
2019-03-12T07:50:26.540Z,997.73
2019-03-12T07:51:26.532Z,997.65
2019-03-12T07:52:26.537Z,997.65
2019-03-12T07:53:26.525Z,997.62
2019-03-12T07:54:26.505Z,997.62
2019-03-12T07:55:29.652Z,997.52
2019-03-12T07:56:26.550Z,997.55
2019-03-12T07:57:26.505Z,997.38
2019-03-12T07:58:35.587Z,997.36
2019-03-12T07:59:28.477Z,997.39
2019-03-12T08:00:26.488Z,997.27
2019-03-12T08:01:26.482Z,997.26
2019-03-12T08:02:26.475Z,997.21
2019-03-12T08:03:26.477Z,997.09
2019-03-12T08:04:26.452Z,997.01
2019-03-12T08:05:28.327Z,997.06
2019-03-12T08:06:27.445Z,997.07
2019-03-12T08:07:26.431Z,996.98
2019-03-12T08:08:26.461Z,996.95
2019-03-12T08:09:26.420Z,996.93
2019-03-12T08:10:26.428Z,996.84
2019-03-12T08:11:26.403Z,996.75
2019-03-12T08:12:26.409Z,996.74
2019-03-12T08:13:26.412Z,996.76
2019-03-12T08:14:27.052Z,996.72
2019-03-12T08:15:27.379Z,996.74
2019-03-12T08:16:26.371Z,996.70
2019-03-12T08:17:26.368Z,996.64
2019-03-12T08:18:26.366Z,996.59
2019-03-12T08:19:26.362Z,996.48
2019-03-12T08:20:26.355Z,996.49
2019-03-12T08:21:26.330Z,996.53
2019-03-12T08:22:26.331Z,996.47
2019-03-12T08:23:26.318Z,996.43
2019-03-12T08:24:26.321Z,996.36
2019-03-12T08:25:26.304Z,996.30
2019-03-12T08:26:26.297Z,996.28
2019-03-12T08:27:26.369Z,996.20
2019-03-12T08:28:26.286Z,996.17
2019-03-12T08:29:26.291Z,996.24
2019-03-12T08:30:26.273Z,996.17
2019-03-12T08:31:26.261Z,996.26
2019-03-12T08:32:26.255Z,996.18
2019-03-12T08:33:26.250Z,996.19
2019-03-12T08:34:26.253Z,996.18
2019-03-12T08:35:26.345Z,996.22
2019-03-12T08:36:26.229Z,996.13
2019-03-12T08:37:26.219Z,996.16
2019-03-12T08:38:26.219Z,996.10
2019-03-12T08:39:26.219Z,996.18
2019-03-12T08:40:26.207Z,996.20
2019-03-12T08:41:26.189Z,996.11
2019-03-12T08:42:26.195Z,996.04
2019-03-12T08:43:26.180Z,996.11
2019-03-12T08:44:26.538Z,996.06
2019-03-12T08:45:27.162Z,996.14
2019-03-12T08:46:26.151Z,996.09
2019-03-12T08:47:26.162Z,996.08
2019-03-12T08:48:26.148Z,996.15
2019-03-12T08:49:26.155Z,996.10
2019-03-12T08:50:26.133Z,996.07
2019-03-12T08:51:26.133Z,996.01
2019-03-12T08:52:26.116Z,996.08
2019-03-12T08:53:26.108Z,996.13
2019-03-12T08:54:26.097Z,996.06
2019-03-12T08:55:26.101Z,996.10
2019-03-12T08:56:26.088Z,996.01
2019-03-12T08:57:26.077Z,996.06
2019-03-12T08:58:26.079Z,996.05
2019-03-12T08:59:26.060Z,996.02
2019-03-12T09:00:26.065Z,996.02
2019-03-12T09:01:26.050Z,995.95
2019-03-12T09:02:26.053Z,996.01
2019-03-12T09:03:26.058Z,996.10
2019-03-12T09:04:26.058Z,996.02
2019-03-12T09:05:26.056Z,996.06
2019-03-12T09:06:26.039Z,996.05
2019-03-12T09:07:26.023Z,995.99
2019-03-12T09:08:26.011Z,996.01
2019-03-12T09:09:26.027Z,995.99
2019-03-12T09:10:26.037Z,996.04
2019-03-12T09:11:26.018Z,996.04
2019-03-12T09:12:26.006Z,996.01
2019-03-12T09:13:26.016Z,995.97
2019-03-12T09:14:26.022Z,995.96
2019-03-12T09:15:26.029Z,995.92
2019-03-12T09:16:25.994Z,995.98
2019-03-12T09:17:25.991Z,996.00
2019-03-12T09:18:25.980Z,995.93
2019-03-12T09:19:25.976Z,995.90
2019-03-12T09:20:25.983Z,996.00
2019-03-12T09:21:25.955Z,996.00
2019-03-12T09:22:25.951Z,995.84
2019-03-12T09:23:25.962Z,995.97
2019-03-12T09:24:25.938Z,995.87
2019-03-12T09:25:25.931Z,995.87
2019-03-12T09:26:25.932Z,995.88
2019-03-12T09:27:25.911Z,995.80
2019-03-12T09:28:25.907Z,995.80
2019-03-12T09:29:25.900Z,995.79
2019-03-12T09:30:25.897Z,995.79
2019-03-12T09:31:25.899Z,995.82
2019-03-12T09:32:25.899Z,995.75
2019-03-12T09:33:25.896Z,995.76
2019-03-12T09:34:25.918Z,995.70
2019-03-12T09:35:25.890Z,995.74
2019-03-12T09:36:25.934Z,995.66
2019-03-12T09:37:25.925Z,995.62
2019-03-12T09:38:25.868Z,995.65
2019-03-12T09:39:25.859Z,995.59
2019-03-12T09:40:25.854Z,995.61
2019-03-12T09:41:25.858Z,995.59
2019-03-12T09:42:25.841Z,995.57
2019-03-12T09:43:25.844Z,995.60
2019-03-12T09:44:25.835Z,995.55
2019-03-12T09:45:25.856Z,995.52
2019-03-12T09:46:25.855Z,995.46
2019-03-12T09:47:25.833Z,995.47
2019-03-12T09:48:25.839Z,995.48
2019-03-12T09:49:27.630Z,995.46
2019-03-12T09:50:26.839Z,995.44
2019-03-12T09:51:25.826Z,995.45
2019-03-12T09:52:25.809Z,995.40
2019-03-12T09:53:25.816Z,995.31
2019-03-12T09:54:25.795Z,995.33
2019-03-12T09:55:25.790Z,995.31
2019-03-12T09:56:25.788Z,995.29
2019-03-12T09:57:25.765Z,995.20
2019-03-12T09:58:25.766Z,995.23
2019-03-12T09:59:25.812Z,995.18
2019-03-12T10:00:25.750Z,995.24
2019-03-12T10:01:25.758Z,995.25
2019-03-12T10:02:25.738Z,995.18
2019-03-12T10:03:25.727Z,995.12
2019-03-12T10:04:25.930Z,995.15
2019-03-12T10:05:25.713Z,995.09
2019-03-12T10:06:25.724Z,995.10
2019-03-12T10:07:25.695Z,995.06
2019-03-12T10:08:25.683Z,995.01
2019-03-12T10:09:25.677Z,994.97
2019-03-12T10:10:25.786Z,995.00
2019-03-12T10:11:25.672Z,994.98
2019-03-12T10:12:25.664Z,994.93
2019-03-12T10:13:25.647Z,994.94
2019-03-12T10:14:25.643Z,994.89
2019-03-12T10:15:25.630Z,994.92
2019-03-12T10:16:25.626Z,994.95
2019-03-12T10:17:25.622Z,994.85
2019-03-12T10:18:25.605Z,994.83
2019-03-12T10:19:25.597Z,994.77
2019-03-12T10:20:25.602Z,994.76
2019-03-12T10:21:25.581Z,994.84
2019-03-12T10:22:25.585Z,994.71
2019-03-12T10:23:25.565Z,994.55
2019-03-12T10:24:28.682Z,994.78
2019-03-12T10:25:25.552Z,994.74
2019-03-12T10:26:25.538Z,994.73
2019-03-12T10:27:25.551Z,994.78
2019-03-12T10:28:25.528Z,994.78
2019-03-12T10:29:57.516Z,994.74
2019-03-12T10:30:25.507Z,994.79
2019-03-12T10:31:25.510Z,994.77
2019-03-12T10:32:25.529Z,994.80
2019-03-12T10:33:25.539Z,994.76
2019-03-12T10:34:29.953Z,994.82
2019-03-12T10:35:26.539Z,994.83
2019-03-12T10:36:25.511Z,994.67
2019-03-12T10:37:25.530Z,994.65
2019-03-12T10:38:25.500Z,994.81
2019-03-12T10:39:25.492Z,994.75
2019-03-12T10:40:25.494Z,994.70
2019-03-12T10:41:25.480Z,994.77
2019-03-12T10:42:25.490Z,994.73
2019-03-12T10:43:25.468Z,994.74
2019-03-12T10:44:25.461Z,994.70
2019-03-12T10:45:25.455Z,994.60
2019-03-12T10:46:25.444Z,994.72
2019-03-12T10:47:25.473Z,994.67
2019-03-12T10:48:25.480Z,994.61
2019-03-12T10:49:36.998Z,994.63
2019-03-12T10:50:27.455Z,994.67
2019-03-12T10:51:25.452Z,994.63
2019-03-12T10:52:25.445Z,994.64
2019-03-12T10:53:25.442Z,994.60
2019-03-12T10:54:25.442Z,994.56
2019-03-12T10:55:25.433Z,994.52
2019-03-12T10:56:25.428Z,994.46
2019-03-12T10:57:25.423Z,994.52
2019-03-12T10:58:25.425Z,994.45
2019-03-12T10:59:25.404Z,994.43
2019-03-12T11:00:25.396Z,994.38
2019-03-12T11:01:25.398Z,994.35
2019-03-12T11:02:25.369Z,994.26
2019-03-12T11:03:26.388Z,994.20
2019-03-12T11:04:25.366Z,994.27
2019-03-12T11:05:25.358Z,994.32
2019-03-12T11:06:25.356Z,994.19
2019-03-12T11:07:25.344Z,994.19
2019-03-12T11:08:25.395Z,994.18
2019-03-12T11:09:25.333Z,994.24
2019-03-12T11:10:25.473Z,994.08
2019-03-12T11:11:25.313Z,994.19
2019-03-12T11:12:25.305Z,994.07
2019-03-12T11:13:25.317Z,994.15
2019-03-12T11:14:25.306Z,994.10
2019-03-12T11:15:25.286Z,994.09
2019-03-12T11:16:25.288Z,994.08
2019-03-12T11:17:25.276Z,994.05
2019-03-12T11:18:25.292Z,994.02
2019-03-12T11:19:25.278Z,994.10
2019-03-12T11:20:25.256Z,993.92
2019-03-12T11:21:25.248Z,993.96
2019-03-12T11:22:25.237Z,993.84
2019-03-12T11:23:25.246Z,993.80
2019-03-12T11:24:25.235Z,993.79
2019-03-12T11:25:27.586Z,993.68
2019-03-12T11:26:26.207Z,993.58
2019-03-12T11:27:25.216Z,993.59
2019-03-12T11:28:26.743Z,993.55
2019-03-12T11:29:26.201Z,993.55
2019-03-12T11:30:25.177Z,993.55
2019-03-12T11:31:25.193Z,993.49
2019-03-12T11:32:25.183Z,993.51
2019-03-12T11:33:25.172Z,993.48
2019-03-12T11:34:25.173Z,993.44
2019-03-12T11:35:25.164Z,993.44
2019-03-12T11:36:25.153Z,993.46
2019-03-12T11:37:25.162Z,993.43
2019-03-12T11:38:25.140Z,993.37
2019-03-12T11:39:25.151Z,993.35
2019-03-12T11:40:25.365Z,993.34
2019-03-12T11:41:25.146Z,993.40
2019-03-12T11:42:25.125Z,993.24
2019-03-12T11:43:25.121Z,993.25
2019-03-12T11:44:25.215Z,993.22
2019-03-12T11:45:35.652Z,993.27
2019-03-12T11:46:27.077Z,993.23
2019-03-12T11:47:25.128Z,993.22
2019-03-12T11:48:25.061Z,993.30
2019-03-12T11:49:25.095Z,993.17
2019-03-12T11:50:25.076Z,993.18
2019-03-12T11:51:25.053Z,993.21
2019-03-12T11:52:25.031Z,993.15
2019-03-12T11:53:25.037Z,993.10
2019-03-12T11:54:25.036Z,993.22
2019-03-12T11:55:25.021Z,993.05
2019-03-12T11:56:24.997Z,993.07
2019-03-12T11:57:25.019Z,993.07
2019-03-12T11:58:24.985Z,993.03
2019-03-12T11:59:24.997Z,993.02
2019-03-12T12:00:25.116Z,992.92
2019-03-12T12:01:24.968Z,992.95
2019-03-12T12:02:24.975Z,992.88
2019-03-12T12:03:24.955Z,992.88
2019-03-12T12:04:25.988Z,992.85
2019-03-12T12:05:24.968Z,992.82
2019-03-12T12:06:24.969Z,992.72
2019-03-12T12:07:24.955Z,992.78
2019-03-12T12:08:25.067Z,992.75
2019-03-12T12:09:24.977Z,992.83
2019-03-12T12:10:24.932Z,992.79
2019-03-12T12:11:24.920Z,992.80
2019-03-12T12:12:24.973Z,992.73
2019-03-12T12:13:24.929Z,992.78
2019-03-12T12:14:24.901Z,992.61
2019-03-12T12:15:24.904Z,992.60
2019-03-12T12:16:24.906Z,992.66
2019-03-12T12:17:24.887Z,992.61
2019-03-12T12:18:24.877Z,992.62
2019-03-12T12:19:25.886Z,992.56
2019-03-12T12:20:30.085Z,992.52
2019-03-12T12:21:26.866Z,992.50
2019-03-12T12:22:24.858Z,992.50
2019-03-12T12:23:24.847Z,992.45
2019-03-12T12:24:26.590Z,992.47
2019-03-12T12:25:25.868Z,992.48
2019-03-12T12:26:24.856Z,992.44
2019-03-12T12:27:24.834Z,992.44
2019-03-12T12:28:24.877Z,992.46